createdAt,value
2022-10-24T00:01:29.938Z,95723.09
2022-10-24T00:03:56.522Z,95717.06
2022-10-24T00:06:23.147Z,95717.66
2022-10-24T00:08:49.873Z,95719.66
2022-10-24T00:11:24.014Z,95709.66
2022-10-24T00:13:51.288Z,95722.38
2022-10-24T00:16:18.171Z,95714.38
2022-10-24T00:18:44.933Z,95721.56
2022-10-24T00:21:11.558Z,95711.56
2022-10-24T00:23:38.259Z,95712.34
2022-10-24T00:26:05.618Z,95713.53
2022-10-24T00:28:33.380Z,95713.34
2022-10-24T00:30:59.921Z,95711.97
2022-10-24T00:33:26.494Z,95706.75
2022-10-24T00:35:53.062Z,95710.75
2022-10-24T00:38:20.548Z,95705.16
2022-10-24T00:40:47.123Z,95703.94
2022-10-24T00:43:14.696Z,95710.34
2022-10-24T00:45:41.283Z,95702.34
2022-10-24T00:48:14.018Z,95701.72
2022-10-24T00:50:40.614Z,95703.34
2022-10-24T00:53:07.314Z,95702.56
2022-10-24T00:55:34.105Z,95709.94
2022-10-24T00:58:01.779Z,95704.72
2022-10-24T01:00:30.298Z,95706.91
2022-10-24T01:02:57.168Z,95706.75
2022-10-24T01:05:26.728Z,95704.75
2022-10-24T01:07:53.234Z,95702.94
2022-10-24T01:10:19.922Z,95705.72
2022-10-24T01:12:49.564Z,95710.34
2022-10-24T01:15:16.109Z,95701.91
2022-10-24T01:17:45.637Z,95701.50
2022-10-24T01:20:26.950Z,95700.31
2022-10-24T01:22:56.626Z,95702.28
2022-10-24T01:25:23.198Z,95697.09
2022-10-24T01:28:09.158Z,95697.72
2022-10-24T01:30:43.142Z,95695.50
2022-10-24T01:33:23.081Z,95694.28
2022-10-24T01:35:55.191Z,95701.47
2022-10-24T01:38:21.797Z,95697.84
2022-10-24T01:40:50.683Z,95691.28
2022-10-24T01:43:20.547Z,95694.84
2022-10-24T01:45:49.899Z,95689.44
2022-10-24T01:48:20.057Z,95694.44
2022-10-24T01:50:48.704Z,95691.66
2022-10-24T01:53:15.376Z,95690.63
2022-10-24T01:55:42.493Z,95686.59
2022-10-24T01:58:09.178Z,95689.78
2022-10-24T02:00:36.144Z,95692.94
2022-10-24T02:03:16.721Z,95690.94
2022-10-24T02:05:45.954Z,95689.00
2022-10-24T02:08:18.886Z,95696.38
2022-10-24T02:10:48.320Z,95694.19
2022-10-24T02:13:28.146Z,95694.38
2022-10-24T02:15:56.034Z,95696.91
2022-10-24T02:18:23.086Z,95700.72
2022-10-24T02:20:49.629Z,95698.16
2022-10-24T02:23:19.016Z,95699.81
2022-10-24T02:25:48.213Z,95692.19
2022-10-24T02:28:20.892Z,95710.50
2022-10-24T02:30:50.745Z,95703.47
2022-10-24T02:33:17.738Z,95703.09
2022-10-24T02:35:45.972Z,95702.47
2022-10-24T02:38:18.126Z,95698.06
2022-10-24T02:40:46.276Z,95702.84
2022-10-24T02:43:14.351Z,95702.84
2022-10-24T02:45:40.988Z,95701.63
2022-10-24T02:48:10.458Z,95690.84
2022-10-24T02:50:38.459Z,95693.63
2022-10-24T02:53:08.684Z,95694.03
2022-10-24T02:55:35.272Z,95698.56
2022-10-24T02:58:01.895Z,95696.81
2022-10-24T03:00:28.594Z,95700.78
2022-10-24T03:02:55.212Z,95698.81
2022-10-24T03:05:21.757Z,95692.03
2022-10-24T03:07:48.351Z,95690.06
2022-10-24T03:10:15.012Z,95687.28
2022-10-24T03:12:41.686Z,95680.91
2022-10-24T03:15:08.627Z,95687.69
2022-10-24T03:17:35.147Z,95687.69
2022-10-24T03:20:01.731Z,95684.91
2022-10-24T03:22:30.596Z,95688.66
2022-10-24T03:25:01.721Z,95681.25
2022-10-24T03:27:28.390Z,95679.63
2022-10-24T03:29:54.988Z,95680.81
2022-10-24T03:32:21.667Z,95681.56
2022-10-24T03:34:48.289Z,95686.38
2022-10-24T03:37:14.915Z,95687.22
2022-10-24T03:39:41.454Z,95690.59
2022-10-24T03:42:08.001Z,95688.78
2022-10-24T03:44:34.622Z,95682.56
2022-10-24T03:47:01.236Z,95688.72
2022-10-24T03:49:27.838Z,95689.34
2022-10-24T03:52:00.210Z,95688.53
2022-10-24T03:54:26.893Z,95693.91
2022-10-24T03:56:53.518Z,95685.53
2022-10-24T03:59:20.096Z,95683.91
2022-10-24T04:01:46.764Z,95684.69
2022-10-24T04:04:13.487Z,95681.31
2022-10-24T04:06:40.656Z,95689.50
2022-10-24T04:09:07.372Z,95680.34
2022-10-24T04:11:34.003Z,95673.94
2022-10-24T04:16:35.394Z,95673.09
2022-10-24T04:19:02.060Z,95677.69
2022-10-24T04:21:28.648Z,95678.28
2022-10-24T04:23:55.231Z,95679.03
2022-10-24T04:26:21.966Z,95680.63
2022-10-24T04:28:48.810Z,95679.03
2022-10-24T04:31:18.147Z,95679.00
2022-10-24T04:33:47.689Z,95677.81
2022-10-24T04:36:14.274Z,95681.38
2022-10-24T04:38:40.980Z,95674.13
2022-10-24T04:41:11.174Z,95680.91
2022-10-24T04:43:39.290Z,95678.06
2022-10-24T04:46:06.520Z,95688.81
2022-10-24T04:48:33.139Z,95687.22
2022-10-24T04:50:59.973Z,95687.22
2022-10-24T04:53:26.817Z,95691.56
2022-10-24T04:55:53.360Z,95695.16
2022-10-24T04:58:20.930Z,95690.53
2022-10-24T05:00:49.838Z,95702.34
2022-10-24T05:03:20.029Z,95698.44
2022-10-24T05:05:47.380Z,95697.69
2022-10-24T05:08:13.948Z,95698.09
2022-10-24T05:10:40.599Z,95698.97
2022-10-24T05:13:07.230Z,95697.41
2022-10-24T05:15:33.805Z,95695.06
2022-10-24T05:18:00.762Z,95701.50
2022-10-24T05:20:27.479Z,95703.53
2022-10-24T05:22:54.074Z,95706.75
2022-10-24T05:25:20.666Z,95715.97
2022-10-24T05:27:47.363Z,95710.84
2022-10-24T05:30:13.947Z,95715.66
2022-10-24T05:32:40.774Z,95716.50
2022-10-24T05:35:07.831Z,95707.94
2022-10-24T05:37:35.926Z,95718.22
2022-10-24T05:40:02.597Z,95713.28
2022-10-24T05:42:29.189Z,95714.09
2022-10-24T05:44:56.297Z,95710.13
2022-10-24T05:47:24.681Z,95713.94
2022-10-24T05:49:53.468Z,95710.22
2022-10-24T05:52:21.169Z,95717.66
2022-10-24T05:55:06.026Z,95709.28
2022-10-24T05:57:33.822Z,95714.31
2022-10-24T06:00:00.944Z,95711.72
2022-10-24T06:02:28.233Z,95717.72
2022-10-24T06:04:56.288Z,95715.34
2022-10-24T06:07:23.119Z,95718.94
2022-10-24T06:09:49.799Z,95723.72
2022-10-24T06:12:16.572Z,95721.72
2022-10-24T06:14:44.655Z,95730.53
2022-10-24T06:17:12.086Z,95729.34
2022-10-24T06:19:39.284Z,95729.31
2022-10-24T06:22:06.540Z,95723.72
2022-10-24T06:24:36.619Z,95728.91
2022-10-24T06:27:03.822Z,95730.06
2022-10-24T06:29:30.542Z,95732.03
2022-10-24T06:31:57.163Z,95743.25
2022-10-24T06:34:23.965Z,95748.88
2022-10-24T06:36:51.003Z,95747.28
2022-10-24T06:39:17.776Z,95749.28
2022-10-24T06:41:44.577Z,95752.53
2022-10-24T06:44:14.062Z,95742.47
2022-10-24T06:46:41.379Z,95757.81
2022-10-24T06:49:09.991Z,95757.03
2022-10-24T06:51:36.642Z,95761.22
2022-10-24T06:54:03.391Z,95760.59
2022-10-24T06:56:29.959Z,95761.03
2022-10-24T06:58:56.600Z,95763.56
2022-10-24T07:01:24.543Z,95762.06
2022-10-24T07:03:52.029Z,95762.03
2022-10-24T07:06:20.549Z,95765.25
2022-10-24T07:08:47.358Z,95764.91
2022-10-24T07:11:14.428Z,95768.38
2022-10-24T07:13:41.026Z,95771.38
2022-10-24T07:16:07.868Z,95769.22
2022-10-24T07:18:34.973Z,95766.56
2022-10-24T07:21:02.891Z,95772.94
2022-10-24T07:23:30.016Z,95766.34
2022-10-24T07:26:00.825Z,95760.69
2022-10-24T07:28:27.438Z,95760.00
2022-10-24T07:30:54.100Z,95766.50
2022-10-24T07:33:20.659Z,95759.88
2022-10-24T07:35:47.521Z,95772.06
2022-10-24T07:38:16.477Z,95770.25
2022-10-24T07:40:45.253Z,95776.31
2022-10-24T07:43:11.808Z,95772.03
2022-10-24T07:45:39.412Z,95773.16
2022-10-24T07:48:06.865Z,95772.97
2022-10-24T07:50:34.775Z,95771.75
2022-10-24T07:53:01.730Z,95768.13
2022-10-24T07:55:28.545Z,95762.97
2022-10-24T07:57:55.125Z,95771.28
2022-10-24T08:00:21.781Z,95762.66
2022-10-24T08:05:18.143Z,95753.09
2022-10-24T08:08:00.351Z,95753.78
2022-10-24T08:10:34.907Z,95749.34
2022-10-24T08:13:01.731Z,95756.69
2022-10-24T08:15:28.411Z,95752.88
2022-10-24T08:17:55.195Z,95750.50
2022-10-24T08:20:22.017Z,95751.97
2022-10-24T08:22:48.667Z,95743.38
2022-10-24T08:25:15.346Z,95745.31
2022-10-24T08:30:14.454Z,95751.09
2022-10-24T08:32:41.098Z,95755.00
2022-10-24T08:35:07.938Z,95744.25
2022-10-24T08:40:13.119Z,95740.72
2022-10-24T08:42:39.841Z,95730.09
2022-10-24T08:45:10.886Z,95736.47
2022-10-24T08:47:45.477Z,95726.13
2022-10-24T08:50:17.439Z,95723.72
2022-10-24T08:52:47.862Z,95725.44
2022-10-24T08:55:30.992Z,95723.19
2022-10-24T08:58:05.293Z,95723.84
2022-10-24T09:00:36.767Z,95725.53
2022-10-24T09:03:03.667Z,95730.44
2022-10-24T09:05:36.630Z,95728.34
2022-10-24T09:08:07.129Z,95719.75
2022-10-24T09:10:41.275Z,95713.78
2022-10-24T09:13:13.034Z,95707.66
2022-10-24T09:15:40.642Z,95710.72
2022-10-24T09:18:14.297Z,95705.13
2022-10-24T09:20:40.855Z,95698.50
2022-10-24T09:23:07.508Z,95705.84
2022-10-24T09:25:35.492Z,95698.56
2022-10-24T09:28:03.692Z,95692.91
2022-10-24T09:30:33.287Z,95699.72
2022-10-24T09:33:04.545Z,95693.84
2022-10-24T09:35:31.695Z,95692.88
2022-10-24T09:37:59.397Z,95692.13
2022-10-24T09:40:27.891Z,95689.72
2022-10-24T09:43:18.624Z,95689.78
2022-10-24T09:45:48.237Z,95695.88
2022-10-24T09:48:17.438Z,95689.53
2022-10-24T09:50:45.712Z,95686.47
2022-10-24T09:53:39.594Z,95688.59
2022-10-24T09:56:14.465Z,95677.50
2022-10-24T09:58:41.741Z,95681.75
2022-10-24T10:01:11.466Z,95681.97
2022-10-24T10:03:38.173Z,95684.38
2022-10-24T10:06:14.543Z,95675.34
2022-10-24T10:08:41.322Z,95674.31
2022-10-24T10:11:10.942Z,95671.09
2022-10-24T10:13:53.667Z,95670.03
2022-10-24T10:16:29.635Z,95666.22
2022-10-24T10:19:16.440Z,95670.91
2022-10-24T10:21:55.437Z,95668.16
2022-10-24T10:24:46.132Z,95665.53
2022-10-24T10:27:27.960Z,95661.63
2022-10-24T10:30:17.784Z,95659.50
2022-10-24T10:33:03.129Z,95658.59
2022-10-24T10:35:47.769Z,95649.50
2022-10-24T10:38:33.040Z,95645.38
2022-10-24T10:41:02.581Z,95641.72
2022-10-24T10:43:31.088Z,95636.53
2022-10-24T10:46:00.684Z,95635.19
2022-10-24T10:48:33.937Z,95634.56
2022-10-24T10:51:07.351Z,95626.34
2022-10-24T10:53:38.364Z,95625.25
2022-10-24T10:56:04.997Z,95627.97
2022-10-24T11:01:18.040Z,95609.94
2022-10-24T11:03:58.648Z,95617.31
2022-10-24T11:06:31.121Z,95608.53
2022-10-24T11:09:00.606Z,95604.88
2022-10-24T11:11:32.839Z,95597.16
2022-10-24T11:14:08.102Z,95604.09
2022-10-24T11:16:35.891Z,95602.69
2022-10-24T11:19:22.455Z,95601.03
2022-10-24T11:21:50.024Z,95601.84
2022-10-24T11:24:21.789Z,95593.63
2022-10-24T11:26:53.319Z,95598.47
2022-10-24T11:29:19.872Z,95592.25
2022-10-24T11:31:53.779Z,95587.38
2022-10-24T11:34:24.060Z,95585.59
2022-10-24T11:37:05.663Z,95580.06
2022-10-24T11:39:52.644Z,95572.19
2022-10-24T11:42:25.910Z,95574.16
2022-10-24T11:45:00.705Z,95573.50
2022-10-24T11:47:27.279Z,95568.94
2022-10-24T11:49:58.143Z,95566.66
2022-10-24T11:52:29.260Z,95563.78
2022-10-24T11:54:55.792Z,95562.94
2022-10-24T11:57:25.530Z,95563.66
2022-10-24T11:59:53.495Z,95556.50
2022-10-24T12:02:50.303Z,95553.66
2022-10-24T12:05:29.106Z,95545.50
2022-10-24T12:08:14.561Z,95550.56
2022-10-24T12:11:00.094Z,95546.66
2022-10-24T12:13:38.937Z,95547.41
2022-10-24T12:16:05.581Z,95539.28
2022-10-24T12:18:32.188Z,95539.38
2022-10-24T12:21:02.662Z,95533.91
2022-10-24T12:23:29.520Z,95531.75
2022-10-24T12:26:07.427Z,95537.59
2022-10-24T12:28:35.813Z,95533.00
2022-10-24T12:31:11.328Z,95535.47
2022-10-24T12:33:38.138Z,95531.16
2022-10-24T12:36:04.826Z,95530.41
2022-10-24T12:38:31.470Z,95530.31
2022-10-24T12:40:59.463Z,95527.69
2022-10-24T12:43:48.452Z,95536.28
2022-10-24T12:46:18.879Z,95530.53
2022-10-24T12:48:58.729Z,95533.38
2022-10-24T12:51:36.368Z,95534.38
2022-10-24T12:54:02.951Z,95526.22
2022-10-24T12:56:30.150Z,95523.13
2022-10-24T12:58:58.202Z,95524.44
2022-10-24T13:01:35.666Z,95527.56
2022-10-24T13:04:05.431Z,95525.34
2022-10-24T13:06:52.320Z,95528.84
2022-10-24T13:09:21.814Z,95524.28
2022-10-24T13:11:55.051Z,95527.19
2022-10-24T13:14:24.428Z,95525.97
2022-10-24T13:17:08.173Z,95529.28
2022-10-24T13:19:35.961Z,95523.44
2022-10-24T13:22:02.632Z,95526.94
2022-10-24T13:24:34.828Z,95526.09
2022-10-24T13:27:04.299Z,95534.50
2022-10-24T13:29:31.076Z,95519.75
2022-10-24T13:32:03.760Z,95531.50
2022-10-24T13:34:39.248Z,95526.63
2022-10-24T13:37:24.559Z,95527.56
2022-10-24T13:40:01.088Z,95530.91
2022-10-24T13:42:40.254Z,95519.22
2022-10-24T13:45:17.952Z,95522.16
2022-10-24T13:47:45.480Z,95518.03
2022-10-24T13:50:20.380Z,95515.78
2022-10-24T13:52:49.628Z,95517.16
2022-10-24T13:55:39.603Z,95512.59
2022-10-24T13:58:06.416Z,95505.75
2022-10-24T14:00:35.752Z,95509.00
2022-10-24T14:03:04.304Z,95510.22
2022-10-24T14:05:32.933Z,95501.28
2022-10-24T14:08:01.076Z,95507.84
2022-10-24T14:10:28.347Z,95497.44
2022-10-24T14:12:57.407Z,95503.72
2022-10-24T14:15:28.882Z,95505.91
2022-10-24T14:17:58.646Z,95499.66
2022-10-24T14:20:27.703Z,95498.53
2022-10-24T14:22:54.686Z,95495.63
2022-10-24T14:25:24.044Z,95499.59
2022-10-24T14:27:52.047Z,95496.50
2022-10-24T14:30:20.429Z,95498.13
2022-10-24T14:32:47.092Z,95491.47
2022-10-24T14:35:14.390Z,95490.44
2022-10-24T14:37:41.614Z,95486.72
2022-10-24T14:40:26.759Z,95494.97
2022-10-24T14:42:53.490Z,95483.69
2022-10-24T14:45:30.454Z,95482.81
2022-10-24T14:47:59.176Z,95481.19
2022-10-24T14:50:37.996Z,95474.19
2022-10-24T14:53:04.827Z,95476.56
2022-10-24T14:55:32.112Z,95477.06
2022-10-24T14:57:58.728Z,95478.06
2022-10-24T15:00:26.950Z,95476.91
2022-10-24T15:02:55.169Z,95475.78
2022-10-24T15:05:24.771Z,95475.50
2022-10-24T15:08:20.392Z,95471.81
2022-10-24T15:10:44.200Z,95464.94
2022-10-24T15:13:14.347Z,95469.63
2022-10-24T15:15:44.173Z,95465.06
2022-10-24T15:18:33.880Z,95460.47
2022-10-24T15:21:13.065Z,95467.63
2022-10-24T15:23:49.366Z,95464.13
2022-10-24T15:26:35.136Z,95463.25
2022-10-24T15:29:07.865Z,95465.19
2022-10-24T15:31:35.818Z,95467.06
2022-10-24T15:34:02.521Z,95459.59
2022-10-24T15:36:31.637Z,95461.72
2022-10-24T15:39:25.099Z,95461.94
2022-10-24T15:41:52.020Z,95462.34
2022-10-24T15:44:24.807Z,95462.28
2022-10-24T15:46:51.465Z,95460.13
2022-10-24T15:49:18.129Z,95461.88
2022-10-24T15:51:49.056Z,95469.03
2022-10-24T15:54:17.971Z,95464.31
2022-10-24T15:56:44.544Z,95465.44
2022-10-24T15:59:12.740Z,95467.44
2022-10-24T16:01:44.990Z,95460.69
2022-10-24T16:04:11.675Z,95463.06
2022-10-24T16:06:38.528Z,95471.03
2022-10-24T16:09:07.105Z,95461.50
2022-10-24T16:11:36.907Z,95467.25
2022-10-24T16:14:04.451Z,95469.00
2022-10-24T16:16:31.106Z,95473.19
2022-10-24T16:18:57.783Z,95470.50
2022-10-24T16:21:24.845Z,95473.00
2022-10-24T16:26:18.296Z,95478.81
2022-10-24T16:28:44.958Z,95480.94
2022-10-24T16:31:11.520Z,95482.06
2022-10-24T16:33:38.210Z,95471.03
2022-10-24T16:36:05.265Z,95475.81
2022-10-24T16:38:31.993Z,95477.38
2022-10-24T16:40:58.623Z,95478.47
2022-10-24T16:43:25.403Z,95479.28
2022-10-24T16:46:01.872Z,95482.75
2022-10-24T16:48:29.093Z,95472.44
2022-10-24T16:50:55.983Z,95476.97
2022-10-24T16:53:24.382Z,95479.03
2022-10-24T16:55:52.481Z,95480.34
2022-10-24T16:58:20.015Z,95470.09
2022-10-24T17:00:47.653Z,95474.28
2022-10-24T17:03:14.771Z,95476.06
2022-10-24T17:05:41.536Z,95468.66
2022-10-24T17:08:08.603Z,95473.63
2022-10-24T17:10:35.237Z,95466.25
2022-10-24T17:13:02.138Z,95471.47
2022-10-24T17:15:29.934Z,95473.88
2022-10-24T17:17:56.592Z,95469.91
2022-10-24T17:20:23.164Z,95472.00
2022-10-24T17:22:50.006Z,95471.44
2022-10-24T17:25:21.784Z,95465.03
2022-10-24T17:27:48.936Z,95474.50
2022-10-24T17:30:17.753Z,95474.41
2022-10-24T17:32:45.826Z,95468.88
2022-10-24T17:35:14.804Z,95470.63
2022-10-24T17:37:59.822Z,95470.09
2022-10-24T17:40:28.212Z,95472.69
2022-10-24T17:42:55.085Z,95466.09
2022-10-24T17:45:23.615Z,95468.72
2022-10-24T17:47:50.616Z,95465.63
2022-10-24T17:50:17.444Z,95473.41
2022-10-24T17:52:50.234Z,95479.69
2022-10-24T17:58:13.088Z,95476.91
2022-10-24T18:00:39.907Z,95475.44
2022-10-24T18:03:08.751Z,95466.19
2022-10-24T18:05:38.163Z,95466.69
2022-10-24T18:08:07.065Z,95470.72
2022-10-24T18:10:33.908Z,95478.03
2022-10-24T18:13:00.759Z,95476.59
2022-10-24T18:15:27.703Z,95470.19
2022-10-24T18:17:54.357Z,95470.72
2022-10-24T18:20:20.951Z,95470.34
2022-10-24T18:22:47.925Z,95470.34
2022-10-24T18:25:20.174Z,95471.91
2022-10-24T18:27:49.479Z,95465.25
2022-10-24T18:30:16.251Z,95470.63
2022-10-24T18:32:43.051Z,95469.81
2022-10-24T18:35:09.843Z,95465.31
2022-10-24T18:37:36.528Z,95468.88
2022-10-24T18:40:04.415Z,95467.41
2022-10-24T18:42:50.770Z,95460.69
2022-10-24T18:45:19.359Z,95465.13
2022-10-24T18:47:46.546Z,95457.25
2022-10-24T18:50:14.226Z,95464.00
2022-10-24T18:52:46.766Z,95456.06
2022-10-24T18:55:23.594Z,95459.72
2022-10-24T18:57:50.708Z,95462.09
2022-10-24T19:00:19.401Z,95461.63
2022-10-24T19:02:53.817Z,95460.47
2022-10-24T19:05:23.688Z,95467.97
2022-10-24T19:07:51.426Z,95463.50
2022-10-24T19:10:20.048Z,95453.31
2022-10-24T19:12:48.180Z,95462.19
2022-10-24T19:15:15.806Z,95460.16
2022-10-24T19:17:42.928Z,95451.28
2022-10-24T19:20:17.759Z,95461.09
2022-10-24T19:22:45.395Z,95461.00
2022-10-24T19:25:12.766Z,95463.94
2022-10-24T19:27:40.508Z,95457.25
2022-10-24T19:30:07.688Z,95459.78
2022-10-24T19:32:34.497Z,95460.69
2022-10-24T19:35:01.216Z,95468.00
2022-10-24T19:37:28.529Z,95469.38
2022-10-24T19:39:58.142Z,95469.84
2022-10-24T19:42:24.923Z,95470.88
2022-10-24T19:44:54.791Z,95464.38
2022-10-24T19:47:21.709Z,95459.63
2022-10-24T19:49:49.133Z,95463.81
2022-10-24T19:52:15.836Z,95468.03
2022-10-24T19:54:42.495Z,95462.63
2022-10-24T19:57:09.139Z,95471.97
2022-10-24T19:59:36.348Z,95467.19
2022-10-24T20:02:03.527Z,95466.97
2022-10-24T20:04:30.702Z,95466.97
2022-10-24T20:06:57.350Z,95472.88
2022-10-24T20:09:25.015Z,95466.41
2022-10-24T20:11:51.560Z,95470.63
2022-10-24T20:14:18.289Z,95470.81
2022-10-24T20:16:44.816Z,95461.06
2022-10-24T20:19:11.394Z,95467.19
2022-10-24T20:21:38.114Z,95472.41
2022-10-24T20:24:04.880Z,95429.00
2022-10-24T20:26:31.546Z,95421.84
2022-10-24T20:28:58.436Z,95463.97
2022-10-24T20:31:26.674Z,95460.34
2022-10-24T20:33:53.337Z,95467.59
2022-10-24T20:36:21.326Z,95466.47
2022-10-24T20:38:48.028Z,95465.13
2022-10-24T20:41:14.732Z,95461.91
2022-10-24T20:43:41.467Z,95462.81
2022-10-24T20:46:08.225Z,95460.06
2022-10-24T20:48:36.342Z,95467.81
2022-10-24T20:51:13.448Z,95464.78
2022-10-24T20:53:40.789Z,95476.13
2022-10-24T20:56:08.907Z,95471.31
2022-10-24T20:58:39.702Z,95471.50
2022-10-24T21:01:11.049Z,95470.91
2022-10-24T21:03:38.158Z,95474.22
2022-10-24T21:06:06.169Z,95471.50
2022-10-24T21:08:32.740Z,95466.19
2022-10-24T21:10:59.438Z,95480.63
2022-10-24T21:13:26.053Z,95482.19
2022-10-24T21:15:56.762Z,95476.88
2022-10-24T21:18:24.028Z,95488.91
2022-10-24T21:20:50.737Z,95483.34
2022-10-24T21:23:17.346Z,95478.03
2022-10-24T21:25:43.961Z,95476.72
2022-10-24T21:28:10.655Z,95469.91
2022-10-24T21:30:37.345Z,95459.47
2022-10-24T21:33:04.728Z,95466.88
2022-10-24T21:35:31.440Z,95467.31
2022-10-24T21:37:58.069Z,95467.16
2022-10-24T21:40:24.824Z,95467.94
2022-10-24T21:42:51.535Z,95467.16
2022-10-24T21:45:18.322Z,95468.06
2022-10-24T21:47:46.008Z,95468.91
2022-10-24T21:50:12.637Z,95456.91
2022-10-24T21:52:39.206Z,95459.72
2022-10-24T21:55:06.042Z,95455.03
2022-10-24T21:57:32.631Z,95454.59
2022-10-24T21:59:59.208Z,95455.47
2022-10-24T22:02:26.859Z,95459.25
2022-10-24T22:04:53.533Z,95458.78
2022-10-24T22:07:20.237Z,95472.28
2022-10-24T22:09:46.807Z,95468.88
2022-10-24T22:12:13.405Z,95464.16
2022-10-24T22:14:41.024Z,95474.75
2022-10-24T22:17:07.934Z,95467.19
2022-10-24T22:19:34.515Z,95469.03
2022-10-24T22:22:01.312Z,95470.53
2022-10-24T22:24:27.921Z,95466.06
2022-10-24T22:26:54.518Z,95464.16
2022-10-24T22:29:22.006Z,95462.72
2022-10-24T22:31:48.740Z,95471.03
2022-10-24T22:34:16.892Z,95467.34
2022-10-24T22:36:49.789Z,95477.75
2022-10-24T22:39:25.847Z,95474.41
2022-10-24T22:41:53.099Z,95472.22
2022-10-24T22:44:20.973Z,95471.66
2022-10-24T22:47:16.881Z,95472.66
2022-10-24T22:49:58.074Z,95464.59
2022-10-24T22:52:25.079Z,95460.66
2022-10-24T22:54:52.482Z,95466.88
2022-10-24T22:57:19.321Z,95469.47
2022-10-24T22:59:47.471Z,95469.09
2022-10-24T23:02:23.350Z,95465.56
2022-10-24T23:04:59.340Z,95464.97
2022-10-24T23:07:30.647Z,95464.41
2022-10-24T23:09:57.264Z,95468.38
2022-10-24T23:12:24.131Z,95461.59
2022-10-24T23:14:51.239Z,95468.25
2022-10-24T23:17:28.595Z,95470.50
2022-10-24T23:19:56.223Z,95468.88
2022-10-24T23:22:27.220Z,95469.06
2022-10-24T23:24:55.102Z,95471.69
2022-10-24T23:27:38.547Z,95469.19
2022-10-24T23:30:07.020Z,95472.19
2022-10-24T23:32:34.838Z,95464.72
2022-10-24T23:35:01.689Z,95467.75
2022-10-24T23:37:28.348Z,95462.50
2022-10-24T23:39:55.307Z,95466.75
2022-10-24T23:42:22.503Z,95453.16
2022-10-24T23:44:49.283Z,95460.81
2022-10-24T23:47:15.973Z,95465.16
2022-10-24T23:49:51.451Z,95455.59
2022-10-24T23:52:26.394Z,95466.00
2022-10-24T23:54:53.446Z,95462.47
2022-10-24T23:57:21.068Z,95465.66
2022-10-24T23:59:47.633Z,95472.88
